sensor_id;sensor_type;location;lat;lon;timestamp;P1;durP1;ratioP1;P2;durP2;ratioP2
35602;SDS011;21725;50.836;4.368;2023-07-16T00:00:11;12.02;;;3.42;;
35602;SDS011;21725;50.836;4.368;2023-07-16T00:03:12;6.07;;;2.53;;
35602;SDS011;21725;50.836;4.368;2023-07-16T00:06:23;12.95;;;2.63;;
35602;SDS011;21725;50.836;4.368;2023-07-16T00:09:35;6.43;;;2.45;;
35602;SDS011;21725;50.836;4.368;2023-07-16T00:12:38;7.65;;;2.38;;
35602;SDS011;21725;50.836;4.368;2023-07-16T00:15:38;8.27;;;3.13;;
35602;SDS011;21725;50.836;4.368;2023-07-16T00:18:44;13.75;;;2.70;;
35602;SDS011;21725;50.836;4.368;2023-07-16T00:21:47;7.15;;;3.10;;
35602;SDS011;21725;50.836;4.368;2023-07-16T00:24:51;8.90;;;2.90;;
35602;SDS011;21725;50.836;4.368;2023-07-16T00:27:54;10.48;;;2.40;;
35602;SDS011;21725;50.836;4.368;2023-07-16T00:30:55;8.05;;;2.88;;
35602;SDS011;21725;50.836;4.368;2023-07-16T00:34:05;9.25;;;3.15;;
35602;SDS011;21725;50.836;4.368;2023-07-16T00:37:06;6.95;;;3.22;;
35602;SDS011;21725;50.836;4.368;2023-07-16T00:40:07;11.65;;;2.83;;
35602;SDS011;21725;50.836;4.368;2023-07-16T00:43:16;11.68;;;4.38;;
35602;SDS011;21725;50.836;4.368;2023-07-16T00:46:28;8.23;;;2.63;;
35602;SDS011;21725;50.836;4.368;2023-07-16T00:49:31;10.05;;;3.00;;
35602;SDS011;21725;50.836;4.368;2023-07-16T00:52:39;8.38;;;2.83;;
35602;SDS011;21725;50.836;4.368;2023-07-16T00:55:44;7.63;;;2.97;;
35602;SDS011;21725;50.836;4.368;2023-07-16T00:58:45;11.80;;;2.78;;
35602;SDS011;21725;50.836;4.368;2023-07-16T01:01:49;11.27;;;2.83;;
35602;SDS011;21725;50.836;4.368;2023-07-16T01:05:09;11.47;;;4.07;;
35602;SDS011;21725;50.836;4.368;2023-07-16T01:08:29;9.18;;;2.50;;
35602;SDS011;21725;50.836;4.368;2023-07-16T01:11:34;8.20;;;3.88;;
35602;SDS011;21725;50.836;4.368;2023-07-16T01:14:36;10.63;;;2.80;;
35602;SDS011;21725;50.836;4.368;2023-07-16T01:17:40;8.68;;;2.75;;
35602;SDS011;21725;50.836;4.368;2023-07-16T01:20:47;8.23;;;2.83;;
35602;SDS011;21725;50.836;4.368;2023-07-16T01:27:34;5.18;;;2.63;;
35602;SDS011;21725;50.836;4.368;2023-07-16T01:30:50;6.78;;;3.00;;
35602;SDS011;21725;50.836;4.368;2023-07-16T01:33:54;10.55;;;3.72;;
35602;SDS011;21725;50.836;4.368;2023-07-16T01:37:02;13.38;;;3.30;;
35602;SDS011;21725;50.836;4.368;2023-07-16T01:40:32;5.88;;;2.97;;
35602;SDS011;21725;50.836;4.368;2023-07-16T01:43:36;11.93;;;3.03;;
35602;SDS011;21725;50.836;4.368;2023-07-16T01:47:04;8.00;;;2.83;;
35602;SDS011;21725;50.836;4.368;2023-07-16T01:50:22;11.05;;;3.28;;
35602;SDS011;21725;50.836;4.368;2023-07-16T01:53:28;7.05;;;2.95;;
35602;SDS011;21725;50.836;4.368;2023-07-16T01:56:31;8.00;;;3.20;;
35602;SDS011;21725;50.836;4.368;2023-07-16T01:59:33;12.02;;;2.85;;
35602;SDS011;21725;50.836;4.368;2023-07-16T02:02:34;12.52;;;2.90;;
35602;SDS011;21725;50.836;4.368;2023-07-16T02:05:37;8.00;;;3.00;;
35602;SDS011;21725;50.836;4.368;2023-07-16T02:08:37;9.30;;;4.03;;
35602;SDS011;21725;50.836;4.368;2023-07-16T02:11:51;5.60;;;2.70;;
35602;SDS011;21725;50.836;4.368;2023-07-16T02:14:54;8.63;;;3.22;;
35602;SDS011;21725;50.836;4.368;2023-07-16T02:17:58;7.78;;;3.00;;
35602;SDS011;21725;50.836;4.368;2023-07-16T02:21:08;10.95;;;3.13;;
35602;SDS011;21725;50.836;4.368;2023-07-16T02:24:16;8.48;;;3.47;;
35602;SDS011;21725;50.836;4.368;2023-07-16T02:27:35;8.97;;;3.80;;
35602;SDS011;21725;50.836;4.368;2023-07-16T02:30:43;8.68;;;3.53;;
35602;SDS011;21725;50.836;4.368;2023-07-16T02:34:03;14.10;;;3.78;;
35602;SDS011;21725;50.836;4.368;2023-07-16T02:37:04;17.08;;;5.65;;
35602;SDS011;21725;50.836;4.368;2023-07-16T02:40:33;13.00;;;5.90;;
35602;SDS011;21725;50.836;4.368;2023-07-16T02:43:36;8.88;;;4.38;;
35602;SDS011;21725;50.836;4.368;2023-07-16T02:46:49;10.25;;;4.25;;
35602;SDS011;21725;50.836;4.368;2023-07-16T02:49:59;11.05;;;4.53;;
35602;SDS011;21725;50.836;4.368;2023-07-16T02:56:23;9.88;;;4.25;;
35602;SDS011;21725;50.836;4.368;2023-07-16T02:59:27;8.18;;;4.50;;
35602;SDS011;21725;50.836;4.368;2023-07-16T03:02:33;9.15;;;4.28;;
35602;SDS011;21725;50.836;4.368;2023-07-16T03:05:39;9.25;;;3.70;;
35602;SDS011;21725;50.836;4.368;2023-07-16T03:08:45;9.52;;;3.83;;
35602;SDS011;21725;50.836;4.368;2023-07-16T03:12:03;12.40;;;4.22;;
35602;SDS011;21725;50.836;4.368;2023-07-16T03:15:08;10.65;;;4.60;;
35602;SDS011;21725;50.836;4.368;2023-07-16T03:18:11;9.40;;;3.92;;
35602;SDS011;21725;50.836;4.368;2023-07-16T03:21:17;11.95;;;4.20;;
35602;SDS011;21725;50.836;4.368;2023-07-16T03:24:33;13.80;;;4.63;;
35602;SDS011;21725;50.836;4.368;2023-07-16T03:27:51;7.75;;;4.05;;
35602;SDS011;21725;50.836;4.368;2023-07-16T03:31:11;11.68;;;5.05;;
35602;SDS011;21725;50.836;4.368;2023-07-16T03:34:20;12.88;;;5.25;;
35602;SDS011;21725;50.836;4.368;2023-07-16T03:37:38;8.60;;;4.07;;
35602;SDS011;21725;50.836;4.368;2023-07-16T03:40:55;12.10;;;3.85;;
35602;SDS011;21725;50.836;4.368;2023-07-16T03:43:56;13.07;;;5.18;;
35602;SDS011;21725;50.836;4.368;2023-07-16T03:47:14;14.95;;;5.22;;
35602;SDS011;21725;50.836;4.368;2023-07-16T03:50:18;8.15;;;4.00;;
35602;SDS011;21725;50.836;4.368;2023-07-16T03:53:27;17.00;;;5.85;;
35602;SDS011;21725;50.836;4.368;2023-07-16T03:56:47;17.83;;;5.43;;
35602;SDS011;21725;50.836;4.368;2023-07-16T03:59:58;11.13;;;4.22;;
35602;SDS011;21725;50.836;4.368;2023-07-16T04:03:09;12.57;;;4.45;;
35602;SDS011;21725;50.836;4.368;2023-07-16T04:06:12;11.73;;;4.20;;
35602;SDS011;21725;50.836;4.368;2023-07-16T04:09:21;8.18;;;3.63;;
35602;SDS011;21725;50.836;4.368;2023-07-16T04:12:22;12.32;;;5.50;;
35602;SDS011;21725;50.836;4.368;2023-07-16T04:15:43;14.75;;;5.38;;
35602;SDS011;21725;50.836;4.368;2023-07-16T04:19:00;12.77;;;4.85;;
35602;SDS011;21725;50.836;4.368;2023-07-16T04:22:08;11.50;;;5.20;;
35602;SDS011;21725;50.836;4.368;2023-07-16T04:25:09;11.25;;;4.85;;
35602;SDS011;21725;50.836;4.368;2023-07-16T04:28:19;12.00;;;5.28;;
35602;SDS011;21725;50.836;4.368;2023-07-16T04:31:20;12.23;;;5.47;;
35602;SDS011;21725;50.836;4.368;2023-07-16T04:34:23;13.13;;;4.93;;
35602;SDS011;21725;50.836;4.368;2023-07-16T04:37:36;13.65;;;4.45;;
35602;SDS011;21725;50.836;4.368;2023-07-16T04:40:37;15.40;;;5.93;;
35602;SDS011;21725;50.836;4.368;2023-07-16T04:44:02;13.98;;;5.53;;
35602;SDS011;21725;50.836;4.368;2023-07-16T04:47:16;11.55;;;5.47;;
35602;SDS011;21725;50.836;4.368;2023-07-16T04:50:20;17.05;;;6.18;;
35602;SDS011;21725;50.836;4.368;2023-07-16T04:53:31;12.85;;;5.63;;
35602;SDS011;21725;50.836;4.368;2023-07-16T04:56:49;12.75;;;5.97;;
35602;SDS011;21725;50.836;4.368;2023-07-16T04:59:55;15.63;;;5.22;;
35602;SDS011;21725;50.836;4.368;2023-07-16T05:02:56;10.70;;;5.53;;
35602;SDS011;21725;50.836;4.368;2023-07-16T05:05:57;18.60;;;6.15;;
35602;SDS011;21725;50.836;4.368;2023-07-16T05:09:05;13.43;;;5.45;;
35602;SDS011;21725;50.836;4.368;2023-07-16T05:12:08;10.90;;;5.88;;
35602;SDS011;21725;50.836;4.368;2023-07-16T05:15:12;12.55;;;5.22;;
35602;SDS011;21725;50.836;4.368;2023-07-16T05:18:16;12.77;;;4.93;;
35602;SDS011;21725;50.836;4.368;2023-07-16T05:21:21;13.05;;;5.88;;
35602;SDS011;21725;50.836;4.368;2023-07-16T05:24:25;12.05;;;5.70;;
35602;SDS011;21725;50.836;4.368;2023-07-16T05:27:33;12.20;;;5.75;;
35602;SDS011;21725;50.836;4.368;2023-07-16T05:30:44;14.70;;;6.30;;
35602;SDS011;21725;50.836;4.368;2023-07-16T05:33:50;12.23;;;5.72;;
35602;SDS011;21725;50.836;4.368;2023-07-16T05:37:18;16.40;;;5.53;;
35602;SDS011;21725;50.836;4.368;2023-07-16T05:40:28;12.93;;;5.05;;
35602;SDS011;21725;50.836;4.368;2023-07-16T05:43:48;13.23;;;6.45;;
35602;SDS011;21725;50.836;4.368;2023-07-16T05:46:59;15.73;;;5.68;;
35602;SDS011;21725;50.836;4.368;2023-07-16T05:50:09;13.55;;;6.18;;
35602;SDS011;21725;50.836;4.368;2023-07-16T05:53:15;17.70;;;5.97;;
35602;SDS011;21725;50.836;4.368;2023-07-16T05:56:43;14.13;;;6.03;;
35602;SDS011;21725;50.836;4.368;2023-07-16T06:00:07;14.18;;;6.75;;
35602;SDS011;21725;50.836;4.368;2023-07-16T06:03:41;12.20;;;6.65;;
35602;SDS011;21725;50.836;4.368;2023-07-16T06:13:41;10.40;;;6.22;;
35602;SDS011;21725;50.836;4.368;2023-07-16T06:16:45;11.90;;;6.00;;
35602;SDS011;21725;50.836;4.368;2023-07-16T06:19:57;13.38;;;5.75;;
35602;SDS011;21725;50.836;4.368;2023-07-16T06:23:05;11.13;;;5.50;;
35602;SDS011;21725;50.836;4.368;2023-07-16T06:26:11;18.35;;;7.10;;
35602;SDS011;21725;50.836;4.368;2023-07-16T06:29:15;11.60;;;6.05;;
35602;SDS011;21725;50.836;4.368;2023-07-16T06:32:34;15.88;;;5.97;;
35602;SDS011;21725;50.836;4.368;2023-07-16T06:35:40;12.55;;;5.90;;
35602;SDS011;21725;50.836;4.368;2023-07-16T06:38:47;11.82;;;5.68;;
35602;SDS011;21725;50.836;4.368;2023-07-16T06:41:50;14.10;;;6.43;;
35602;SDS011;21725;50.836;4.368;2023-07-16T06:44:58;13.55;;;6.40;;
35602;SDS011;21725;50.836;4.368;2023-07-16T06:47:59;12.80;;;5.90;;
35602;SDS011;21725;50.836;4.368;2023-07-16T06:51:02;13.88;;;6.25;;
35602;SDS011;21725;50.836;4.368;2023-07-16T06:54:19;11.93;;;6.55;;
35602;SDS011;21725;50.836;4.368;2023-07-16T06:57:33;13.65;;;6.65;;
35602;SDS011;21725;50.836;4.368;2023-07-16T07:00:38;13.25;;;5.95;;
35602;SDS011;21725;50.836;4.368;2023-07-16T07:03:42;13.02;;;6.13;;
35602;SDS011;21725;50.836;4.368;2023-07-16T07:06:43;12.55;;;5.57;;
35602;SDS011;21725;50.836;4.368;2023-07-16T07:09:54;12.88;;;5.57;;
35602;SDS011;21725;50.836;4.368;2023-07-16T07:12:57;15.85;;;6.60;;
35602;SDS011;21725;50.836;4.368;2023-07-16T07:16:06;10.30;;;5.20;;
35602;SDS011;21725;50.836;4.368;2023-07-16T07:19:26;15.45;;;7.18;;
35602;SDS011;21725;50.836;4.368;2023-07-16T07:22:27;12.60;;;5.80;;
35602;SDS011;21725;50.836;4.368;2023-07-16T07:25:33;11.45;;;6.15;;
35602;SDS011;21725;50.836;4.368;2023-07-16T07:28:38;12.02;;;5.22;;
35602;SDS011;21725;50.836;4.368;2023-07-16T07:31:48;11.50;;;6.47;;
35602;SDS011;21725;50.836;4.368;2023-07-16T07:34:52;14.07;;;5.65;;
35602;SDS011;21725;50.836;4.368;2023-07-16T07:37:53;13.45;;;5.90;;
35602;SDS011;21725;50.836;4.368;2023-07-16T07:41:04;11.63;;;5.32;;
35602;SDS011;21725;50.836;4.368;2023-07-16T07:44:19;13.77;;;6.78;;
35602;SDS011;21725;50.836;4.368;2023-07-16T07:47:26;11.70;;;6.88;;
35602;SDS011;21725;50.836;4.368;2023-07-16T07:50:35;14.07;;;5.88;;
35602;SDS011;21725;50.836;4.368;2023-07-16T07:53:44;15.05;;;7.15;;
35602;SDS011;21725;50.836;4.368;2023-07-16T07:57:10;9.40;;;5.82;;
35602;SDS011;21725;50.836;4.368;2023-07-16T08:00:13;12.93;;;6.45;;
35602;SDS011;21725;50.836;4.368;2023-07-16T08:03:19;14.05;;;6.07;;
35602;SDS011;21725;50.836;4.368;2023-07-16T08:06:29;13.43;;;5.85;;
35602;SDS011;21725;50.836;4.368;2023-07-16T08:09:32;13.57;;;6.22;;
35602;SDS011;21725;50.836;4.368;2023-07-16T08:12:42;10.32;;;6.00;;
35602;SDS011;21725;50.836;4.368;2023-07-16T08:15:48;12.88;;;5.47;;
35602;SDS011;21725;50.836;4.368;2023-07-16T08:18:49;15.77;;;5.80;;
35602;SDS011;21725;50.836;4.368;2023-07-16T08:21:52;11.13;;;5.85;;
35602;SDS011;21725;50.836;4.368;2023-07-16T08:24:55;11.60;;;5.43;;
35602;SDS011;21725;50.836;4.368;2023-07-16T08:27:58;13.90;;;5.70;;
35602;SDS011;21725;50.836;4.368;2023-07-16T08:31:27;12.35;;;6.47;;
35602;SDS011;21725;50.836;4.368;2023-07-16T08:34:30;10.73;;;5.13;;
35602;SDS011;21725;50.836;4.368;2023-07-16T08:37:50;12.82;;;5.88;;
35602;SDS011;21725;50.836;4.368;2023-07-16T08:41:18;8.18;;;5.28;;
35602;SDS011;21725;50.836;4.368;2023-07-16T08:44:21;8.82;;;4.57;;
35602;SDS011;21725;50.836;4.368;2023-07-16T08:47:48;12.52;;;4.82;;
35602;SDS011;21725;50.836;4.368;2023-07-16T08:50:59;17.58;;;6.82;;
35602;SDS011;21725;50.836;4.368;2023-07-16T08:54:12;12.73;;;5.60;;
35602;SDS011;21725;50.836;4.368;2023-07-16T08:57:28;7.93;;;4.40;;
35602;SDS011;21725;50.836;4.368;2023-07-16T09:00:33;11.82;;;5.80;;
35602;SDS011;21725;50.836;4.368;2023-07-16T09:03:56;10.32;;;4.68;;
35602;SDS011;21725;50.836;4.368;2023-07-16T09:07:01;11.68;;;5.40;;
35602;SDS011;21725;50.836;4.368;2023-07-16T09:10:12;10.45;;;4.70;;
35602;SDS011;21725;50.836;4.368;2023-07-16T09:13:22;10.18;;;4.55;;
35602;SDS011;21725;50.836;4.368;2023-07-16T09:16:27;10.23;;;3.80;;
35602;SDS011;21725;50.836;4.368;2023-07-16T09:19:32;9.43;;;4.63;;
35602;SDS011;21725;50.836;4.368;2023-07-16T09:22:38;13.82;;;5.03;;
35602;SDS011;21725;50.836;4.368;2023-07-16T09:25:46;10.73;;;4.40;;
35602;SDS011;21725;50.836;4.368;2023-07-16T09:28:52;10.10;;;4.20;;
35602;SDS011;21725;50.836;4.368;2023-07-16T09:31:59;9.93;;;5.00;;
35602;SDS011;21725;50.836;4.368;2023-07-16T09:35:14;9.55;;;4.53;;
35602;SDS011;21725;50.836;4.368;2023-07-16T09:38:33;11.82;;;4.60;;
35602;SDS011;21725;50.836;4.368;2023-07-16T09:41:37;11.75;;;4.93;;
35602;SDS011;21725;50.836;4.368;2023-07-16T09:44:43;9.27;;;5.00;;
35602;SDS011;21725;50.836;4.368;2023-07-16T09:47:53;11.88;;;6.03;;
35602;SDS011;21725;50.836;4.368;2023-07-16T09:51:06;15.10;;;5.47;;
35602;SDS011;21725;50.836;4.368;2023-07-16T09:54:31;12.88;;;5.80;;
35602;SDS011;21725;50.836;4.368;2023-07-16T09:57:41;12.45;;;5.35;;
35602;SDS011;21725;50.836;4.368;2023-07-16T10:00:53;13.00;;;5.00;;
35602;SDS011;21725;50.836;4.368;2023-07-16T10:04:12;11.77;;;5.18;;
35602;SDS011;21725;50.836;4.368;2023-07-16T10:07:21;9.30;;;4.57;;
35602;SDS011;21725;50.836;4.368;2023-07-16T10:10:27;12.40;;;5.93;;
35602;SDS011;21725;50.836;4.368;2023-07-16T10:14:02;8.77;;;4.22;;
35602;SDS011;21725;50.836;4.368;2023-07-16T10:17:04;10.23;;;5.03;;
35602;SDS011;21725;50.836;4.368;2023-07-16T10:20:27;12.07;;;4.35;;
35602;SDS011;21725;50.836;4.368;2023-07-16T10:23:45;9.88;;;4.55;;
35602;SDS011;21725;50.836;4.368;2023-07-16T10:26:48;7.93;;;3.97;;
35602;SDS011;21725;50.836;4.368;2023-07-16T10:29:52;9.95;;;4.30;;
35602;SDS011;21725;50.836;4.368;2023-07-16T10:33:13;8.90;;;4.20;;
35602;SDS011;21725;50.836;4.368;2023-07-16T10:36:42;9.82;;;5.57;;
35602;SDS011;21725;50.836;4.368;2023-07-16T10:39:48;8.52;;;4.15;;
35602;SDS011;21725;50.836;4.368;2023-07-16T10:42:56;9.38;;;4.68;;
35602;SDS011;21725;50.836;4.368;2023-07-16T10:49:44;10.40;;;4.70;;
35602;SDS011;21725;50.836;4.368;2023-07-16T11:07:26;10.30;;;4.45;;
35602;SDS011;21725;50.836;4.368;2023-07-16T11:10:52;12.20;;;3.92;;
35602;SDS011;21725;50.836;4.368;2023-07-16T11:13:54;9.50;;;4.40;;
35602;SDS011;21725;50.836;4.368;2023-07-16T11:17:03;10.52;;;5.03;;
35602;SDS011;21725;50.836;4.368;2023-07-16T11:20:13;9.80;;;4.95;;
35602;SDS011;21725;50.836;4.368;2023-07-16T11:23:34;15.25;;;5.55;;
35602;SDS011;21725;50.836;4.368;2023-07-16T11:26:42;10.45;;;4.82;;
35602;SDS011;21725;50.836;4.368;2023-07-16T11:30:05;11.55;;;5.90;;
35602;SDS011;21725;50.836;4.368;2023-07-16T11:33:10;6.93;;;3.80;;
35602;SDS011;21725;50.836;4.368;2023-07-16T11:39:40;9.20;;;4.45;;
35602;SDS011;21725;50.836;4.368;2023-07-16T11:42:46;10.23;;;5.45;;
35602;SDS011;21725;50.836;4.368;2023-07-16T11:45:54;8.30;;;5.55;;
35602;SDS011;21725;50.836;4.368;2023-07-16T11:49:19;7.60;;;4.35;;
35602;SDS011;21725;50.836;4.368;2023-07-16T11:52:29;9.50;;;5.18;;
35602;SDS011;21725;50.836;4.368;2023-07-16T11:56:06;12.73;;;5.72;;
35602;SDS011;21725;50.836;4.368;2023-07-16T11:59:07;11.00;;;5.25;;
35602;SDS011;21725;50.836;4.368;2023-07-16T12:02:19;8.63;;;4.97;;
35602;SDS011;21725;50.836;4.368;2023-07-16T12:05:43;14.25;;;4.80;;
35602;SDS011;21725;50.836;4.368;2023-07-16T12:08:49;11.35;;;4.95;;
35602;SDS011;21725;50.836;4.368;2023-07-16T12:12:07;11.23;;;5.15;;
35602;SDS011;21725;50.836;4.368;2023-07-16T12:15:13;8.80;;;4.97;;
35602;SDS011;21725;50.836;4.368;2023-07-16T12:18:39;12.80;;;5.18;;
35602;SDS011;21725;50.836;4.368;2023-07-16T12:25:12;17.08;;;4.28;;
35602;SDS011;21725;50.836;4.368;2023-07-16T12:28:51;9.23;;;4.35;;
35602;SDS011;21725;50.836;4.368;2023-07-16T12:32:09;7.22;;;3.58;;
35602;SDS011;21725;50.836;4.368;2023-07-16T12:35:10;8.20;;;3.85;;
35602;SDS011;21725;50.836;4.368;2023-07-16T12:38:16;9.43;;;3.60;;
35602;SDS011;21725;50.836;4.368;2023-07-16T12:41:35;9.00;;;3.85;;
35602;SDS011;21725;50.836;4.368;2023-07-16T12:44:36;9.20;;;4.30;;
35602;SDS011;21725;50.836;4.368;2023-07-16T12:47:49;9.48;;;4.50;;
35602;SDS011;21725;50.836;4.368;2023-07-16T12:50:51;9.50;;;4.85;;
35602;SDS011;21725;50.836;4.368;2023-07-16T12:57:38;8.18;;;4.22;;
35602;SDS011;21725;50.836;4.368;2023-07-16T13:04:34;7.85;;;3.88;;
35602;SDS011;21725;50.836;4.368;2023-07-16T13:07:43;8.23;;;4.07;;
35602;SDS011;21725;50.836;4.368;2023-07-16T13:11:15;9.70;;;4.35;;
35602;SDS011;21725;50.836;4.368;2023-07-16T13:14:25;8.85;;;4.15;;
35602;SDS011;21725;50.836;4.368;2023-07-16T13:17:36;8.88;;;3.42;;
35602;SDS011;21725;50.836;4.368;2023-07-16T13:20:52;8.77;;;3.70;;
35602;SDS011;21725;50.836;4.368;2023-07-16T13:23:55;5.18;;;2.85;;
35602;SDS011;21725;50.836;4.368;2023-07-16T13:26:59;9.20;;;4.05;;
35602;SDS011;21725;50.836;4.368;2023-07-16T13:30:10;10.98;;;4.85;;
35602;SDS011;21725;50.836;4.368;2023-07-16T13:33:13;8.45;;;4.07;;
35602;SDS011;21725;50.836;4.368;2023-07-16T13:36:21;8.63;;;3.25;;
35602;SDS011;21725;50.836;4.368;2023-07-16T13:39:30;4.63;;;2.65;;
35602;SDS011;21725;50.836;4.368;2023-07-16T13:42:34;6.18;;;3.10;;
35602;SDS011;21725;50.836;4.368;2023-07-16T13:45:38;6.88;;;2.95;;
35602;SDS011;21725;50.836;4.368;2023-07-16T13:48:56;4.93;;;2.70;;
35602;SDS011;21725;50.836;4.368;2023-07-16T13:52:07;6.20;;;3.15;;
35602;SDS011;21725;50.836;4.368;2023-07-16T13:55:27;5.80;;;2.40;;
35602;SDS011;21725;50.836;4.368;2023-07-16T13:58:40;5.88;;;3.10;;
35602;SDS011;21725;50.836;4.368;2023-07-16T14:01:41;5.40;;;3.10;;
35602;SDS011;21725;50.836;4.368;2023-07-16T14:04:49;6.43;;;3.15;;
35602;SDS011;21725;50.836;4.368;2023-07-16T14:08:00;6.60;;;2.90;;
35602;SDS011;21725;50.836;4.368;2023-07-16T14:11:14;9.38;;;3.33;;
35602;SDS011;21725;50.836;4.368;2023-07-16T14:14:18;6.85;;;2.65;;
35602;SDS011;21725;50.836;4.368;2023-07-16T14:17:34;7.68;;;3.00;;
35602;SDS011;21725;50.836;4.368;2023-07-16T14:20:57;8.82;;;3.20;;
35602;SDS011;21725;50.836;4.368;2023-07-16T14:24:03;8.65;;;4.00;;
35602;SDS011;21725;50.836;4.368;2023-07-16T14:27:06;8.98;;;3.83;;
35602;SDS011;21725;50.836;4.368;2023-07-16T14:30:34;6.68;;;3.13;;
35602;SDS011;21725;50.836;4.368;2023-07-16T14:33:52;5.70;;;3.57;;
35602;SDS011;21725;50.836;4.368;2023-07-16T14:37:03;8.73;;;3.38;;
35602;SDS011;21725;50.836;4.368;2023-07-16T14:43:19;8.63;;;3.65;;
35602;SDS011;21725;50.836;4.368;2023-07-16T14:46:28;5.82;;;3.17;;
35602;SDS011;21725;50.836;4.368;2023-07-16T14:49:31;7.18;;;3.00;;
35602;SDS011;21725;50.836;4.368;2023-07-16T14:52:40;5.70;;;2.58;;
35602;SDS011;21725;50.836;4.368;2023-07-16T14:55:47;5.13;;;2.67;;
35602;SDS011;21725;50.836;4.368;2023-07-16T14:59:31;5.13;;;2.38;;
35602;SDS011;21725;50.836;4.368;2023-07-16T15:02:55;5.57;;;2.33;;
35602;SDS011;21725;50.836;4.368;2023-07-16T15:05:58;5.65;;;2.25;;
35602;SDS011;21725;50.836;4.368;2023-07-16T15:09:04;5.32;;;2.28;;
35602;SDS011;21725;50.836;4.368;2023-07-16T15:12:32;4.65;;;1.98;;
35602;SDS011;21725;50.836;4.368;2023-07-16T15:15:59;3.58;;;1.95;;
35602;SDS011;21725;50.836;4.368;2023-07-16T15:19:02;6.03;;;2.40;;
35602;SDS011;21725;50.836;4.368;2023-07-16T15:22:19;3.50;;;2.22;;
35602;SDS011;21725;50.836;4.368;2023-07-16T15:25:24;5.88;;;2.72;;
35602;SDS011;21725;50.836;4.368;2023-07-16T15:28:30;5.65;;;2.92;;
35602;SDS011;21725;50.836;4.368;2023-07-16T15:35:00;7.15;;;2.50;;
35602;SDS011;21725;50.836;4.368;2023-07-16T15:38:24;6.88;;;2.50;;
35602;SDS011;21725;50.836;4.368;2023-07-16T15:41:28;6.53;;;2.50;;
35602;SDS011;21725;50.836;4.368;2023-07-16T15:44:34;7.28;;;3.42;;
35602;SDS011;21725;50.836;4.368;2023-07-16T15:47:45;5.95;;;3.45;;
35602;SDS011;21725;50.836;4.368;2023-07-16T15:50:46;10.27;;;2.72;;
35602;SDS011;21725;50.836;4.368;2023-07-16T15:54:15;10.15;;;4.00;;
35602;SDS011;21725;50.836;4.368;2023-07-16T15:57:26;5.57;;;3.08;;
35602;SDS011;21725;50.836;4.368;2023-07-16T16:00:30;6.93;;;3.38;;
35602;SDS011;21725;50.836;4.368;2023-07-16T16:03:50;5.85;;;3.03;;
35602;SDS011;21725;50.836;4.368;2023-07-16T16:07:04;7.00;;;3.63;;
35602;SDS011;21725;50.836;4.368;2023-07-16T16:10:34;10.38;;;3.45;;
35602;SDS011;21725;50.836;4.368;2023-07-16T16:13:35;8.50;;;2.63;;
35602;SDS011;21725;50.836;4.368;2023-07-16T16:16:41;7.05;;;3.60;;
35602;SDS011;21725;50.836;4.368;2023-07-16T16:19:47;7.68;;;2.83;;
35602;SDS011;21725;50.836;4.368;2023-07-16T16:23:15;5.22;;;2.97;;
35602;SDS011;21725;50.836;4.368;2023-07-16T16:26:18;5.63;;;3.15;;
35602;SDS011;21725;50.836;4.368;2023-07-16T16:29:22;5.32;;;2.42;;
35602;SDS011;21725;50.836;4.368;2023-07-16T16:32:29;7.50;;;3.17;;
35602;SDS011;21725;50.836;4.368;2023-07-16T16:35:33;10.85;;;3.30;;
35602;SDS011;21725;50.836;4.368;2023-07-16T16:38:55;7.43;;;3.72;;
35602;SDS011;21725;50.836;4.368;2023-07-16T16:42:18;8.40;;;3.63;;
35602;SDS011;21725;50.836;4.368;2023-07-16T16:45:34;6.10;;;3.47;;
35602;SDS011;21725;50.836;4.368;2023-07-16T16:48:51;7.00;;;3.60;;
35602;SDS011;21725;50.836;4.368;2023-07-16T16:51:52;8.15;;;3.50;;
35602;SDS011;21725;50.836;4.368;2023-07-16T16:54:54;5.25;;;2.70;;
35602;SDS011;21725;50.836;4.368;2023-07-16T16:58:04;5.47;;;2.45;;
35602;SDS011;21725;50.836;4.368;2023-07-16T17:01:10;4.60;;;1.90;;
35602;SDS011;21725;50.836;4.368;2023-07-16T17:04:28;14.68;;;3.00;;
35602;SDS011;21725;50.836;4.368;2023-07-16T17:10:37;7.60;;;3.45;;
35602;SDS011;21725;50.836;4.368;2023-07-16T17:14:02;5.88;;;3.42;;
35602;SDS011;21725;50.836;4.368;2023-07-16T17:17:03;6.15;;;2.58;;
35602;SDS011;21725;50.836;4.368;2023-07-16T17:20:27;6.07;;;2.10;;
35602;SDS011;21725;50.836;4.368;2023-07-16T17:23:32;7.40;;;3.17;;
35602;SDS011;21725;50.836;4.368;2023-07-16T17:26:36;7.40;;;3.00;;
35602;SDS011;21725;50.836;4.368;2023-07-16T17:29:52;6.88;;;2.50;;
35602;SDS011;21725;50.836;4.368;2023-07-16T17:33:08;5.75;;;2.67;;
35602;SDS011;21725;50.836;4.368;2023-07-16T17:36:09;10.50;;;4.13;;
35602;SDS011;21725;50.836;4.368;2023-07-16T17:39:17;5.72;;;3.03;;
35602;SDS011;21725;50.836;4.368;2023-07-16T17:42:20;8.65;;;2.60;;
35602;SDS011;21725;50.836;4.368;2023-07-16T17:45:24;6.32;;;2.47;;
35602;SDS011;21725;50.836;4.368;2023-07-16T17:48:26;5.93;;;2.45;;
35602;SDS011;21725;50.836;4.368;2023-07-16T17:58:42;8.65;;;2.72;;
35602;SDS011;21725;50.836;4.368;2023-07-16T18:01:47;4.83;;;2.60;;
35602;SDS011;21725;50.836;4.368;2023-07-16T18:04:58;5.00;;;2.35;;
35602;SDS011;21725;50.836;4.368;2023-07-16T18:08:42;5.93;;;2.80;;
35602;SDS011;21725;50.836;4.368;2023-07-16T18:11:50;6.97;;;3.05;;
35602;SDS011;21725;50.836;4.368;2023-07-16T18:14:53;7.57;;;2.72;;
35602;SDS011;21725;50.836;4.368;2023-07-16T18:18:11;5.53;;;3.08;;
35602;SDS011;21725;50.836;4.368;2023-07-16T18:21:22;10.85;;;3.42;;
35602;SDS011;21725;50.836;4.368;2023-07-16T18:24:24;5.30;;;3.42;;
35602;SDS011;21725;50.836;4.368;2023-07-16T18:27:49;5.63;;;3.30;;
35602;SDS011;21725;50.836;4.368;2023-07-16T18:31:22;5.20;;;2.42;;
35602;SDS011;21725;50.836;4.368;2023-07-16T18:38:08;5.13;;;2.92;;
35602;SDS011;21725;50.836;4.368;2023-07-16T18:41:26;8.38;;;3.55;;
35602;SDS011;21725;50.836;4.368;2023-07-16T18:44:44;6.70;;;3.35;;
35602;SDS011;21725;50.836;4.368;2023-07-16T18:47:56;5.35;;;3.10;;
35602;SDS011;21725;50.836;4.368;2023-07-16T18:51:02;6.35;;;2.50;;
35602;SDS011;21725;50.836;4.368;2023-07-16T18:57:34;8.97;;;2.90;;
35602;SDS011;21725;50.836;4.368;2023-07-16T19:00:46;3.65;;;2.03;;
35602;SDS011;21725;50.836;4.368;2023-07-16T19:04:14;5.03;;;2.70;;
35602;SDS011;21725;50.836;4.368;2023-07-16T19:08:10;7.03;;;2.95;;
35602;SDS011;21725;50.836;4.368;2023-07-16T19:11:24;6.70;;;2.70;;
35602;SDS011;21725;50.836;4.368;2023-07-16T19:14:35;5.80;;;2.70;;
35602;SDS011;21725;50.836;4.368;2023-07-16T19:17:38;6.15;;;2.55;;
35602;SDS011;21725;50.836;4.368;2023-07-16T19:20:47;6.40;;;3.13;;
35602;SDS011;21725;50.836;4.368;2023-07-16T19:23:51;9.45;;;3.72;;
35602;SDS011;21725;50.836;4.368;2023-07-16T19:26:57;7.65;;;3.08;;
35602;SDS011;21725;50.836;4.368;2023-07-16T19:30:12;7.03;;;3.47;;
35602;SDS011;21725;50.836;4.368;2023-07-16T19:33:26;5.22;;;2.40;;
35602;SDS011;21725;50.836;4.368;2023-07-16T19:40:08;4.93;;;2.75;;
35602;SDS011;21725;50.836;4.368;2023-07-16T19:47:13;7.93;;;3.17;;
35602;SDS011;21725;50.836;4.368;2023-07-16T19:50:16;5.97;;;2.83;;
35602;SDS011;21725;50.836;4.368;2023-07-16T19:53:35;6.15;;;2.80;;
35602;SDS011;21725;50.836;4.368;2023-07-16T19:56:46;5.93;;;2.85;;
35602;SDS011;21725;50.836;4.368;2023-07-16T20:00:09;4.80;;;2.03;;
35602;SDS011;21725;50.836;4.368;2023-07-16T20:03:16;5.78;;;2.53;;
35602;SDS011;21725;50.836;4.368;2023-07-16T20:06:24;8.50;;;2.97;;
35602;SDS011;21725;50.836;4.368;2023-07-16T20:09:41;5.15;;;2.40;;
35602;SDS011;21725;50.836;4.368;2023-07-16T20:12:53;7.00;;;2.50;;
35602;SDS011;21725;50.836;4.368;2023-07-16T20:16:25;6.15;;;2.50;;